sensor_id;sensor_type;location;lat;lon;timestamp;pressure;altitude;pressure_sealevel;temperature;humidity
86612;BME280;77290;50.078;14.470;2024-03-25T00:01:48;97042.84;;;4.56;71.79
86612;BME280;77290;50.078;14.470;2024-03-25T00:04:18;97060.91;;;4.54;71.96
86612;BME280;77290;50.078;14.470;2024-03-25T00:06:49;96714.53;;;2.52;72.13
86612;BME280;77290;50.078;14.470;2024-03-25T00:09:18;97053.16;;;4.59;71.87
86612;BME280;77290;50.078;14.470;2024-03-25T00:11:45;97057.41;;;4.62;71.68
86612;BME280;77290;50.078;14.470;2024-03-25T00:14:11;97065.22;;;4.57;71.71
86612;BME280;77290;50.078;14.470;2024-03-25T00:16:39;97615.38;;;6.57;72.11
86612;BME280;77290;50.078;14.470;2024-03-25T00:19:04;96735.88;;;2.68;71.68
86612;BME280;77290;50.078;14.470;2024-03-25T00:21:30;97051.38;;;4.64;71.89
86612;BME280;77290;50.078;14.470;2024-03-25T00:23:58;97060.81;;;4.65;71.79
86612;BME280;77290;50.078;14.470;2024-03-25T00:26:23;97055.66;;;4.65;71.81
86612;BME280;77290;50.078;14.470;2024-03-25T00:28:52;97063.41;;;4.68;71.46
86612;BME280;77290;50.078;14.470;2024-03-25T00:31:17;97078.03;;;4.68;71.65
86612;BME280;77290;50.078;14.470;2024-03-25T00:33:43;96959.81;;;4.08;71.83
86612;BME280;77290;50.078;14.470;2024-03-25T00:36:08;97063.41;;;4.65;71.65
86612;BME280;77290;50.078;14.470;2024-03-25T00:38:34;97060.81;;;4.67;71.55
86612;BME280;77290;50.078;14.470;2024-03-25T00:41:02;97059.97;;;4.66;71.51
86612;BME280;77290;50.078;14.470;2024-03-25T00:43:31;97065.94;;;4.70;71.38
86612;BME280;77290;50.078;14.470;2024-03-25T00:46:00;97053.06;;;4.68;71.61
86612;BME280;77290;50.078;14.470;2024-03-25T00:48:25;97053.06;;;4.68;71.52
86612;BME280;77290;50.078;14.470;2024-03-25T00:50:51;96086.19;;;4.71;71.47
86612;BME280;77290;50.078;14.470;2024-03-25T00:53:18;97056.50;;;4.67;71.55
86612;BME280;77290;50.078;14.470;2024-03-25T00:55:46;97048.75;;;4.69;71.41
86612;BME280;77290;50.078;14.470;2024-03-25T00:58:12;97046.97;;;4.72;71.43
86612;BME280;77290;50.078;14.470;2024-03-25T01:00:39;97043.50;;;4.75;71.33
86612;BME280;77290;50.078;14.470;2024-03-25T01:03:05;97043.47;;;4.78;71.15
86612;BME280;77290;50.078;14.470;2024-03-25T01:05:33;97036.63;;;4.74;71.06
86612;BME280;77290;50.078;14.470;2024-03-25T01:07:58;97039.22;;;4.75;70.95
86612;BME280;77290;50.078;14.470;2024-03-25T01:10:26;97108.09;;;4.73;71.12
86612;BME280;77290;50.078;14.470;2024-03-25T01:12:51;97051.28;;;4.70;70.89
86612;BME280;77290;50.078;14.470;2024-03-25T01:15:17;97049.59;;;4.69;71.32
86612;BME280;77290;50.078;14.470;2024-03-25T01:17:45;97039.28;;;4.69;70.89
86612;BME280;77290;50.078;14.470;2024-03-25T01:20:10;97039.22;;;4.72;71.12
86612;BME280;77290;50.078;14.470;2024-03-25T01:22:38;97038.28;;;4.78;71.04
86612;BME280;77290;50.078;14.470;2024-03-25T01:25:04;97385.34;;;6.77;70.57
86612;BME280;77290;50.078;14.470;2024-03-25T01:27:29;97027.94;;;4.79;70.66
86612;BME280;77290;50.078;14.470;2024-03-25T01:29:57;97044.31;;;4.78;70.61
86612;BME280;77290;50.078;14.470;2024-03-25T01:32:25;97042.56;;;4.83;70.36
86612;BME280;77290;50.078;14.470;2024-03-25T01:34:51;97040.84;;;4.81;70.26
86612;BME280;77290;50.078;14.470;2024-03-25T01:37:16;97034.88;;;4.77;70.09
86612;BME280;77290;50.078;14.470;2024-03-25T01:39:41;97040.91;;;4.76;69.93
86612;BME280;77290;50.078;14.470;2024-03-25T01:42:07;97040.91;;;4.76;69.75
86612;BME280;77290;50.078;14.470;2024-03-25T01:44:32;97034.03;;;4.77;70.11
86612;BME280;77290;50.078;14.470;2024-03-25T01:47:00;97046.03;;;4.82;69.48
86612;BME280;77290;50.078;14.470;2024-03-25T01:49:26;97037.34;;;4.86;69.79
86612;BME280;77290;50.078;14.470;2024-03-25T01:51:54;96124.81;;;4.40;69.36
86612;BME280;77290;50.078;14.470;2024-03-25T01:54:22;97029.56;;;4.91;69.14
86612;BME280;77290;50.078;14.470;2024-03-25T01:56:47;97039.88;;;4.92;68.83
86612;BME280;77290;50.078;14.470;2024-03-25T01:59:15;97041.59;;;4.92;69.02
86612;BME280;77290;50.078;14.470;2024-03-25T02:01:44;97032.94;;;4.94;68.95
86612;BME280;77290;50.078;14.470;2024-03-25T02:04:16;97033.84;;;4.93;69.11
86612;BME280;77290;50.078;14.470;2024-03-25T02:06:44;97041.56;;;4.95;69.30
86612;BME280;77290;50.078;14.470;2024-03-25T02:09:12;97043.31;;;4.93;69.02
86612;BME280;77290;50.078;14.470;2024-03-25T02:11:41;97037.31;;;4.92;67.19
86612;BME280;77290;50.078;14.470;2024-03-25T02:14:07;97041.56;;;4.95;69.13
86612;BME280;77290;50.078;14.470;2024-03-25T02:16:33;96945.81;;;4.31;68.79
86612;BME280;77290;50.078;14.470;2024-03-25T02:19:00;97042.47;;;4.92;68.92
86612;BME280;77290;50.078;14.470;2024-03-25T02:21:28;96736.66;;;4.95;68.72
86612;BME280;77290;50.078;14.470;2024-03-25T02:23:59;96736.66;;;4.95;68.72
86612;BME280;77290;50.078;14.470;2024-03-25T02:26:25;97051.00;;;4.97;68.44
86612;BME280;77290;50.078;14.470;2024-03-25T02:28:55;97056.19;;;4.97;68.54
86612;BME280;77290;50.078;14.470;2024-03-25T02:31:23;97052.72;;;4.98;68.63
86612;BME280;77290;50.078;14.470;2024-03-25T02:33:54;97055.31;;;4.98;68.85
86612;BME280;77290;50.078;14.470;2024-03-25T02:36:20;97056.16;;;5.01;69.18
86612;BME280;77290;50.078;14.470;2024-03-25T02:38:45;97054.47;;;4.95;69.03
86612;BME280;77290;50.078;14.470;2024-03-25T02:41:11;97000.56;;;4.66;69.52
86612;BME280;77290;50.078;14.470;2024-03-25T02:43:36;97056.22;;;4.94;69.63
86612;BME280;77290;50.078;14.470;2024-03-25T02:46:02;97053.59;;;4.99;69.40
86612;BME280;77290;50.078;14.470;2024-03-25T02:48:30;97057.97;;;4.92;69.30
86612;BME280;77290;50.078;14.470;2024-03-25T02:50:59;97053.63;;;4.94;69.55
86612;BME280;77290;50.078;14.470;2024-03-25T02:53:27;97064.03;;;4.87;70.21
86612;BME280;77290;50.078;14.470;2024-03-25T02:55:55;97051.09;;;4.88;70.07
86612;BME280;77290;50.078;14.470;2024-03-25T02:58:23;97051.09;;;4.90;69.82
86612;BME280;77290;50.078;14.470;2024-03-25T03:00:48;97044.22;;;4.87;69.62
86612;BME280;77290;50.078;14.470;2024-03-25T03:03:16;97064.88;;;4.90;69.77
86612;BME280;77290;50.078;14.470;2024-03-25T03:05:44;97059.72;;;4.87;69.80
86612;BME280;77290;50.078;14.470;2024-03-25T03:08:09;97067.47;;;4.90;69.74
86612;BME280;77290;50.078;14.470;2024-03-25T03:10:35;97064.03;;;4.88;69.73
86612;BME280;77290;50.078;14.470;2024-03-25T03:13:00;97065.75;;;4.86;69.38
86612;BME280;77290;50.078;14.470;2024-03-25T03:15:28;97070.94;;;4.86;68.71
86612;BME280;77290;50.078;14.470;2024-03-25T03:17:53;97080.41;;;4.86;68.81
86612;BME280;77290;50.078;14.470;2024-03-25T03:20:18;97078.66;;;4.89;68.50
86612;BME280;77290;50.078;14.470;2024-03-25T03:22:49;97068.41;;;4.83;68.31
86612;BME280;77290;50.078;14.470;2024-03-25T03:25:17;97085.56;;;4.87;68.49
86612;BME280;77290;50.078;14.470;2024-03-25T03:27:43;96208.03;;;4.88;68.26
86612;BME280;77290;50.078;14.470;2024-03-25T03:30:11;97084.78;;;4.81;68.51
86612;BME280;77290;50.078;14.470;2024-03-25T03:32:41;97086.56;;;4.77;68.29
86612;BME280;77290;50.078;14.470;2024-03-25T03:35:06;97088.28;;;4.75;68.37
86612;BME280;77290;50.078;14.470;2024-03-25T03:37:35;97089.16;;;4.74;68.13
86612;BME280;77290;50.078;14.470;2024-03-25T03:40:03;97096.06;;;4.72;68.46
86612;BME280;77290;50.078;14.470;2024-03-25T03:42:31;97092.59;;;4.73;68.17
86612;BME280;77290;50.078;14.470;2024-03-25T03:44:57;97097.84;;;4.67;68.61
86612;BME280;77290;50.078;14.470;2024-03-25T03:47:22;97100.41;;;4.69;68.34
86612;BME280;77290;50.078;14.470;2024-03-25T03:49:47;97098.69;;;4.68;68.44
86612;BME280;77290;50.078;14.470;2024-03-25T03:52:13;97099.56;;;4.65;68.23
86612;BME280;77290;50.078;14.470;2024-03-25T03:54:40;97102.16;;;4.67;67.99
86612;BME280;77290;50.078;14.470;2024-03-25T03:57:06;97104.72;;;4.65;68.11
86612;BME280;77290;50.078;14.470;2024-03-25T03:59:34;97110.75;;;4.66;68.53
86612;BME280;77290;50.078;14.470;2024-03-25T04:02:01;97119.38;;;4.66;68.45
86612;BME280;77290;50.078;14.470;2024-03-25T04:04:28;97116.78;;;4.65;68.48
86612;BME280;77290;50.078;14.470;2024-03-25T04:06:56;97121.09;;;4.66;67.95
86612;BME280;77290;50.078;14.470;2024-03-25T04:09:23;97124.53;;;4.65;68.25
86612;BME280;77290;50.078;14.470;2024-03-25T04:11:51;97121.97;;;4.62;68.20
86612;BME280;77290;50.078;14.470;2024-03-25T04:14:17;97121.97;;;4.63;68.31
86612;BME280;77290;50.078;14.470;2024-03-25T04:16:42;97117.69;;;4.61;68.08
86612;BME280;77290;50.078;14.470;2024-03-25T04:19:08;97124.56;;;4.62;67.90
86612;BME280;77290;50.078;14.470;2024-03-25T04:21:36;97151.22;;;4.65;68.12
86612;BME280;77290;50.078;14.470;2024-03-25T04:24:08;97139.19;;;4.64;67.79
86612;BME280;77290;50.078;14.470;2024-03-25T04:26:34;97142.63;;;4.66;67.68
86612;BME280;77290;50.078;14.470;2024-03-25T04:28:59;97145.19;;;4.69;67.78
86612;BME280;77290;50.078;14.470;2024-03-25T04:31:28;97145.13;;;4.72;67.67
86612;BME280;77290;50.078;14.470;2024-03-25T04:33:55;97050.13;;;4.11;67.46
86612;BME280;77290;50.078;14.470;2024-03-25T04:36:23;97158.09;;;4.68;68.05
86612;BME280;77290;50.078;14.470;2024-03-25T04:38:54;97165.84;;;4.66;67.88
86612;BME280;77290;50.078;14.470;2024-03-25T04:41:19;97169.28;;;4.68;67.63
86612;BME280;77290;50.078;14.470;2024-03-25T04:43:44;96856.78;;;2.85;67.89
86612;BME280;77290;50.078;14.470;2024-03-25T04:46:11;97002.72;;;2.80;67.53
86612;BME280;77290;50.078;14.470;2024-03-25T04:48:36;97181.34;;;4.66;68.10
86612;BME280;77290;50.078;14.470;2024-03-25T04:51:01;97189.09;;;4.66;68.07
86612;BME280;77290;50.078;14.470;2024-03-25T04:53:28;97196.88;;;4.65;67.97
86612;BME280;77290;50.078;14.470;2024-03-25T04:55:54;97188.25;;;4.66;67.87
86612;BME280;77290;50.078;14.470;2024-03-25T04:58:24;97202.03;;;4.68;68.27
86612;BME280;77290;50.078;14.470;2024-03-25T05:00:55;97201.16;;;4.67;68.08
86612;BME280;77290;50.078;14.470;2024-03-25T05:03:20;97196.00;;;4.67;68.18
86612;BME280;77290;50.078;14.470;2024-03-25T05:05:48;97205.47;;;4.67;68.79
86612;BME280;77290;50.078;14.470;2024-03-25T05:08:14;97208.03;;;4.67;69.01
86612;BME280;77290;50.078;14.470;2024-03-25T05:10:42;97205.47;;;4.68;68.98
86612;BME280;77290;50.078;14.470;2024-03-25T05:13:07;97208.91;;;4.63;69.25
86612;BME280;77290;50.078;14.470;2024-03-25T05:15:33;97214.09;;;4.63;69.11
86612;BME280;77290;50.078;14.470;2024-03-25T05:17:58;97218.38;;;4.65;68.94
86612;BME280;77290;50.078;14.470;2024-03-25T05:20:23;97225.28;;;4.66;68.96
86612;BME280;77290;50.078;14.470;2024-03-25T05:22:49;97218.41;;;4.62;68.72
86612;BME280;77290;50.078;14.470;2024-03-25T05:25:15;97227.00;;;4.67;68.35
86612;BME280;77290;50.078;14.470;2024-03-25T05:27:42;97228.72;;;4.65;68.23
86612;BME280;77290;50.078;14.470;2024-03-25T05:30:13;97244.16;;;4.70;68.14
86612;BME280;77290;50.078;14.470;2024-03-25T05:32:41;97238.13;;;4.72;68.30
86612;BME280;77290;50.078;14.470;2024-03-25T05:35:09;97239.84;;;4.73;68.29
86612;BME280;77290;50.078;14.470;2024-03-25T05:37:35;97237.25;;;4.76;68.15
86612;BME280;77290;50.078;14.470;2024-03-25T05:40:01;97238.97;;;4.77;68.22
86612;BME280;77290;50.078;14.470;2024-03-25T05:42:30;97238.97;;;4.76;67.88
86612;BME280;77290;50.078;14.470;2024-03-25T05:44:55;97251.00;;;4.78;67.97
86612;BME280;77290;50.078;14.470;2024-03-25T05:47:23;97665.78;;;7.20;68.68
86612;BME280;77290;50.078;14.470;2024-03-25T05:49:49;97839.44;;;8.27;68.34
86612;BME280;77290;50.078;14.470;2024-03-25T05:52:16;97435.44;;;4.32;67.97
86612;BME280;77290;50.078;14.470;2024-03-25T05:54:44;97249.22;;;4.86;67.96
86612;BME280;77290;50.078;14.470;2024-03-25T05:57:09;97249.22;;;4.86;67.71
86612;BME280;77290;50.078;14.470;2024-03-25T05:59:35;97255.22;;;4.90;68.07
86612;BME280;77290;50.078;14.470;2024-03-25T06:02:00;97256.97;;;4.86;67.77
86612;BME280;77290;50.078;14.470;2024-03-25T06:04:30;97261.22;;;4.96;67.80
86612;BME280;77290;50.078;14.470;2024-03-25T06:06:57;97259.47;;;5.02;67.32
86612;BME280;77290;50.078;14.470;2024-03-25T06:09:24;97269.81;;;5.02;66.76
86612;BME280;77290;50.078;14.470;2024-03-25T06:11:50;97259.41;;;5.05;66.94
86612;BME280;77290;50.078;14.470;2024-03-25T06:14:15;96280.00;;;5.03;66.66
86612;BME280;77290;50.078;14.470;2024-03-25T06:16:43;97280.09;;;5.06;66.28
86612;BME280;77290;50.078;14.470;2024-03-25T06:19:09;97272.28;;;5.11;66.12
86612;BME280;77290;50.078;14.470;2024-03-25T06:21:38;97277.38;;;5.21;65.97
86612;BME280;77290;50.078;14.470;2024-03-25T06:24:03;97280.75;;;5.31;65.61
86612;BME280;77290;50.078;14.470;2024-03-25T06:26:29;97266.09;;;5.30;65.09
86612;BME280;77290;50.078;14.470;2024-03-25T06:28:54;97276.44;;;5.33;65.16
86612;BME280;77290;50.078;14.470;2024-03-25T06:31:22;97274.06;;;5.99;63.03
86612;BME280;77290;50.078;14.470;2024-03-25T06:34:07;97274.03;;;6.68;61.55
86612;BME280;77290;50.078;14.470;2024-03-25T06:36:49;96276.75;;;6.59;61.05
86612;BME280;77290;50.078;14.470;2024-03-25T06:39:20;97284.81;;;6.37;61.09
86612;BME280;77290;50.078;14.470;2024-03-25T06:41:45;97279.63;;;6.37;60.89
86612;BME280;77290;50.078;14.470;2024-03-25T06:44:10;97296.22;;;6.24;60.81
86612;BME280;77290;50.078;14.470;2024-03-25T06:46:36;97303.22;;;6.16;61.37
86612;BME280;77290;50.078;14.470;2024-03-25T06:49:04;97308.31;;;6.22;61.34
86612;BME280;77290;50.078;14.470;2024-03-25T06:51:30;97697.38;;;8.29;61.80
86612;BME280;77290;50.078;14.470;2024-03-25T06:53:55;97310.25;;;6.02;61.26
86612;BME280;77290;50.078;14.470;2024-03-25T06:56:21;97318.97;;;5.95;61.55
86612;BME280;77290;50.078;14.470;2024-03-25T06:58:49;97317.16;;;6.04;61.89
86612;BME280;77290;50.078;14.470;2024-03-25T07:01:17;97318.69;;;6.19;61.29
86612;BME280;77290;50.078;14.470;2024-03-25T07:03:44;97330.66;;;6.29;61.41
86612;BME280;77290;50.078;14.470;2024-03-25T07:06:10;97685.97;;;8.42;60.89
86612;BME280;77290;50.078;14.470;2024-03-25T07:08:35;97327.38;;;6.15;60.92
86612;BME280;77290;50.078;14.470;2024-03-25T07:11:01;97329.81;;;6.30;60.43
86612;BME280;77290;50.078;14.470;2024-03-25T07:13:27;97330.66;;;6.32;60.19
86612;BME280;77290;50.078;14.470;2024-03-25T07:15:53;97342.53;;;6.48;60.24
86612;BME280;77290;50.078;14.470;2024-03-25T07:18:18;97345.22;;;6.41;58.04
86612;BME280;77290;50.078;14.470;2024-03-25T07:20:46;97343.31;;;6.54;59.84
86612;BME280;77290;50.078;14.470;2024-03-25T07:23:13;97344.06;;;6.65;59.70
86612;BME280;77290;50.078;14.470;2024-03-25T07:25:38;97354.31;;;6.74;59.23
86612;BME280;77290;50.078;14.470;2024-03-25T07:28:07;97360.78;;;6.39;59.50
86612;BME280;77290;50.078;14.470;2024-03-25T07:30:35;97349.47;;;6.46;59.86
86612;BME280;77290;50.078;14.470;2024-03-25T07:33:00;97355.69;;;6.33;59.81
86612;BME280;77290;50.078;14.470;2024-03-25T07:35:28;97360.81;;;6.36;59.95
86612;BME280;77290;50.078;14.470;2024-03-25T07:38:00;97206.22;;;6.40;59.77
86612;BME280;77290;50.078;14.470;2024-03-25T07:40:26;97370.88;;;6.62;59.58
86612;BME280;77290;50.078;14.470;2024-03-25T07:42:51;97374.31;;;6.64;59.16
86612;BME280;77290;50.078;14.470;2024-03-25T07:45:17;97353.69;;;6.52;59.51
86612;BME280;77290;50.078;14.470;2024-03-25T07:47:46;97266.97;;;6.16;59.30
86612;BME280;77290;50.078;14.470;2024-03-25T07:50:19;97376.59;;;6.87;58.96
86612;BME280;77290;50.078;14.470;2024-03-25T07:52:48;97382.50;;;7.00;58.96
86612;BME280;77290;50.078;14.470;2024-03-25T07:55:15;97379.59;;;7.19;57.95
86612;BME280;77290;50.078;14.470;2024-03-25T07:57:43;97381.97;;;7.88;56.70
86612;BME280;77290;50.078;14.470;2024-03-25T08:00:11;97386.44;;;8.31;55.14
86612;BME280;77290;50.078;14.470;2024-03-25T08:02:36;97389.50;;;8.51;54.05
86612;BME280;77290;50.078;14.470;2024-03-25T08:05:02;97391.91;;;9.79;51.32
86612;BME280;77290;50.078;14.470;2024-03-25T08:07:29;97390.94;;;9.83;50.48
86612;BME280;77290;50.078;14.470;2024-03-25T08:09:57;97388.91;;;9.59;50.58
86612;BME280;77290;50.078;14.470;2024-03-25T08:12:25;97396.00;;;9.53;50.79
86612;BME280;77290;50.078;14.470;2024-03-25T08:14:50;97386.34;;;9.57;50.57
86612;BME280;77290;50.078;14.470;2024-03-25T08:17:18;97077.41;;;7.83;50.45
86612;BME280;77290;50.078;14.470;2024-03-25T08:19:46;97394.84;;;9.65;50.09
86612;BME280;77290;50.078;14.470;2024-03-25T08:22:14;97388.03;;;9.60;49.94
86612;BME280;77290;50.078;14.470;2024-03-25T08:24:40;97388.84;;;9.23;50.54
86612;BME280;77290;50.078;14.470;2024-03-25T08:27:05;97386.94;;;8.93;51.10
86612;BME280;77290;50.078;14.470;2024-03-25T08:29:30;97387.63;;;8.58;51.56
86612;BME280;77290;50.078;14.470;2024-03-25T08:31:58;97470.56;;;8.22;52.48
86612;BME280;77290;50.078;14.470;2024-03-25T08:34:24;97385.31;;;7.96;53.02
86612;BME280;77290;50.078;14.470;2024-03-25T08:36:49;97395.34;;;7.66;54.49
86612;BME280;77290;50.078;14.470;2024-03-25T08:39:17;97397.72;;;7.79;53.38
86612;BME280;77290;50.078;14.470;2024-03-25T08:41:43;97405.41;;;7.84;52.63
86612;BME280;77290;50.078;14.470;2024-03-25T08:44:08;97398.47;;;7.84;53.25
86612;BME280;77290;50.078;14.470;2024-03-25T08:46:33;97404.19;;;8.05;52.80
86612;BME280;77290;50.078;14.470;2024-03-25T08:49:03;97407.63;;;8.07;52.24
86612;BME280;77290;50.078;14.470;2024-03-25T08:51:31;97403.88;;;8.23;51.27
86612;BME280;77290;50.078;14.470;2024-03-25T08:53:57;97395.13;;;8.27;50.86
86612;BME280;77290;50.078;14.470;2024-03-25T08:56:25;97416.34;;;8.52;50.47
86612;BME280;77290;50.078;14.470;2024-03-25T08:58:50;97408.28;;;8.65;50.17
86612;BME280;77290;50.078;14.470;2024-03-25T09:01:18;97415.94;;;8.73;49.75
86612;BME280;77290;50.078;14.470;2024-03-25T09:03:43;97419.19;;;8.84;49.20
86612;BME280;77290;50.078;14.470;2024-03-25T09:06:12;97423.53;;;8.84;49.74
86612;BME280;77290;50.078;14.470;2024-03-25T09:08:37;97422.09;;;9.10;48.85
86612;BME280;77290;50.078;14.470;2024-03-25T09:11:25;97429.69;;;9.21;47.90
86612;BME280;77290;50.078;14.470;2024-03-25T09:13:54;97432.91;;;9.32;47.84
86612;BME280;77290;50.078;14.470;2024-03-25T09:16:19;97429.28;;;9.39;47.90
86612;BME280;77290;50.078;14.470;2024-03-25T09:18:48;97471.56;;;9.50;47.15
86612;BME280;77290;50.078;14.470;2024-03-25T09:21:16;97437.06;;;9.41;46.94
86612;BME280;77290;50.078;14.470;2024-03-25T09:23:46;97234.38;;;8.12;47.12
86612;BME280;77290;50.078;14.470;2024-03-25T09:26:13;97445.91;;;8.91;48.24
86612;BME280;77290;50.078;14.470;2024-03-25T09:28:41;97437.78;;;8.64;49.53
86612;BME280;77290;50.078;14.470;2024-03-25T09:31:06;97445.75;;;8.06;51.30
86612;BME280;77290;50.078;14.470;2024-03-25T09:33:32;97450.97;;;8.05;51.52
86612;BME280;77290;50.078;14.470;2024-03-25T09:36:00;97745.75;;;9.52;52.45
86612;BME280;77290;50.078;14.470;2024-03-25T09:38:25;97463.94;;;8.06;51.95
86612;BME280;77290;50.078;14.470;2024-03-25T09:40:52;96838.03;;;8.05;52.99
86612;BME280;77290;50.078;14.470;2024-03-25T09:43:27;97467.19;;;8.16;53.16
86612;BME280;77290;50.078;14.470;2024-03-25T09:45:56;97482.13;;;8.05;54.28
86612;BME280;77290;50.078;14.470;2024-03-25T09:48:31;97480.66;;;7.87;54.92
86612;BME280;77290;50.078;14.470;2024-03-25T09:50:57;97480.09;;;7.67;55.89
86612;BME280;77290;50.078;14.470;2024-03-25T09:53:23;97487.59;;;7.86;55.46
86612;BME280;77290;50.078;14.470;2024-03-25T09:55:56;97476.00;;;8.59;53.52
86612;BME280;77290;50.078;14.470;2024-03-25T09:58:27;97485.47;;;8.63;53.89
86612;BME280;77290;50.078;14.470;2024-03-25T10:00:54;97478.66;;;9.01;52.40
86612;BME280;77290;50.078;14.470;2024-03-25T10:03:21;97945.09;;;9.09;52.08
86612;BME280;77290;50.078;14.470;2024-03-25T10:05:46;97481.28;;;8.99;52.07
86612;BME280;77290;50.078;14.470;2024-03-25T10:08:20;97489.47;;;9.24;51.78
86612;BME280;77290;50.078;14.470;2024-03-25T10:10:47;97481.78;;;9.18;51.40
86612;BME280;77290;50.078;14.470;2024-03-25T10:13:13;97483.97;;;8.96;50.96
86612;BME280;77290;50.078;14.470;2024-03-25T10:15:40;97486.19;;;8.71;52.33
86612;BME280;77290;50.078;14.470;2024-03-25T10:18:06;97495.28;;;8.48;53.82
86612;BME280;77290;50.078;14.470;2024-03-25T10:20:33;97508.28;;;7.92;55.12
86612;BME280;77290;50.078;14.470;2024-03-25T10:23:02;97518.03;;;7.75;57.74
86612;BME280;77290;50.078;14.470;2024-03-25T10:25:30;97883.31;;;9.80;58.50
86612;BME280;77290;50.078;14.470;2024-03-25T10:28:00;97505.41;;;7.51;58.85
86612;BME280;77290;50.078;14.470;2024-03-25T10:30:27;97514.34;;;7.91;57.56
86612;BME280;77290;50.078;14.470;2024-03-25T10:33:05;97510.09;;;7.87;56.58
86612;BME280;77290;50.078;14.470;2024-03-25T10:35:35;97511.84;;;7.85;56.80
86612;BME280;77290;50.078;14.470;2024-03-25T10:38:10;97510.59;;;8.09;56.26
86612;BME280;77290;50.078;14.470;2024-03-25T10:40:41;97994.72;;;8.00;56.27
86612;BME280;77290;50.078;14.470;2024-03-25T10:43:09;97894.72;;;10.23;55.63
86612;BME280;77290;50.078;14.470;2024-03-25T10:45:45;97504.22;;;8.30;55.07
86612;BME280;77290;50.078;14.470;2024-03-25T10:48:28;97507.50;;;8.41;53.82
86612;BME280;77290;50.078;14.470;2024-03-25T10:50:55;97507.00;;;8.71;53.21
86612;BME280;77290;50.078;14.470;2024-03-25T10:53:29;97626.84;;;9.96;51.46
86612;BME280;77290;50.078;14.470;2024-03-25T10:55:56;96601.09;;;10.01;49.34
86612;BME280;77290;50.078;14.470;2024-03-25T10:58:24;97626.03;;;11.37;48.10
86612;BME280;77290;50.078;14.470;2024-03-25T11:00:52;96308.81;;;11.65;45.78
86612;BME280;77290;50.078;14.470;2024-03-25T11:03:24;97493.59;;;11.42;45.42
86612;BME280;77290;50.078;14.470;2024-03-25T11:05:50;97490.00;;;11.16;46.03
86612;BME280;77290;50.078;14.470;2024-03-25T11:08:17;97487.38;;;11.17;46.21
86612;BME280;77290;50.078;14.470;2024-03-25T11:10:46;97489.22;;;11.12;46.51
86612;BME280;77290;50.078;14.470;2024-03-25T11:13:17;97482.63;;;11.00;46.50
86612;BME280;77290;50.078;14.470;2024-03-25T11:15:48;97478.59;;;10.87;46.46
86612;BME280;77290;50.078;14.470;2024-03-25T11:18:16;97483.28;;;10.42;47.76
86612;BME280;77290;50.078;14.470;2024-03-25T11:20:44;97468.38;;;10.47;47.02
86612;BME280;77290;50.078;14.470;2024-03-25T11:23:13;97485.00;;;10.77;46.85
86612;BME280;77290;50.078;14.470;2024-03-25T11:25:40;97474.72;;;11.03;46.05
86612;BME280;77290;50.078;14.470;2024-03-25T11:28:06;97203.09;;;9.63;46.07
86612;BME280;77290;50.078;14.470;2024-03-25T11:30:32;97475.00;;;11.82;44.86
86612;BME280;77290;50.078;14.470;2024-03-25T11:33:04;97470.50;;;11.86;43.88
86612;BME280;77290;50.078;14.470;2024-03-25T11:35:38;97472.94;;;11.92;43.89
86612;BME280;77290;50.078;14.470;2024-03-25T11:38:05;97462.44;;;12.20;41.83
86612;BME280;77290;50.078;14.470;2024-03-25T11:40:31;97464.34;;;13.41;40.23
86612;BME280;77290;50.078;14.470;2024-03-25T11:42:58;97457.34;;;14.50;37.37
86612;BME280;77290;50.078;14.470;2024-03-25T11:45:23;97461.16;;;15.04;37.29
86612;BME280;77290;50.078;14.470;2024-03-25T11:47:51;97461.31;;;15.19;36.77
86612;BME280;77290;50.078;14.470;2024-03-25T11:50:18;97467.63;;;15.15;37.58
86612;BME280;77290;50.078;14.470;2024-03-25T11:52:44;97465.88;;;14.96;37.55
86612;BME280;77290;50.078;14.470;2024-03-25T11:55:10;97459.31;;;15.06;37.27
86612;BME280;77290;50.078;14.470;2024-03-25T11:57:39;97464.31;;;14.29;38.20
86612;BME280;77290;50.078;14.470;2024-03-25T12:00:12;97470.47;;;13.63;39.67
86612;BME280;77290;50.078;14.470;2024-03-25T12:02:43;97467.06;;;12.65;41.12
86612;BME280;77290;50.078;14.470;2024-03-25T12:05:11;97475.88;;;12.36;42.06
86612;BME280;77290;50.078;14.470;2024-03-25T12:07:38;97818.25;;;14.60;42.46
86612;BME280;77290;50.078;14.470;2024-03-25T12:10:04;97475.59;;;12.18;42.15
86612;BME280;77290;50.078;14.470;2024-03-25T12:12:49;97475.59;;;12.18;42.15
86612;BME280;77290;50.078;14.470;2024-03-25T12:15:18;97464.91;;;11.12;41.12
86612;BME280;77290;50.078;14.470;2024-03-25T12:17:43;97465.50;;;10.90;42.06
86612;BME280;77290;50.078;14.470;2024-03-25T12:20:12;97465.50;;;10.90;42.06
86612;BME280;77290;50.078;14.470;2024-03-25T12:22:38;97462.84;;;10.92;42.34
86612;BME280;77290;50.078;14.470;2024-03-25T12:25:04;97538.28;;;10.67;41.91
86612;BME280;77290;50.078;14.470;2024-03-25T12:27:35;98230.13;;;16.01;40.81
86612;BME280;77290;50.078;14.470;2024-03-25T12:30:12;97163.09;;;9.96;40.46
86612;BME280;77290;50.078;14.470;2024-03-25T12:32:38;97459.41;;;11.79;40.30
86612;BME280;77290;50.078;14.470;2024-03-25T12:35:14;97456.69;;;12.10;39.96
86612;BME280;77290;50.078;14.470;2024-03-25T12:37:42;97860.16;;;14.63;38.72
86612;BME280;77290;50.078;14.470;2024-03-25T12:40:14;97447.78;;;12.16;39.34
86612;BME280;77290;50.078;14.470;2024-03-25T12:42:52;97454.63;;;11.64;40.52
86612;BME280;77290;50.078;14.470;2024-03-25T12:45:17;97456.34;;;11.06;41.64
86612;BME280;77290;50.078;14.470;2024-03-25T12:47:43;97461.28;;;10.54;45.16
86612;BME280;77290;50.078;14.470;2024-03-25T12:50:08;97456.53;;;10.36;46.88
86612;BME280;77290;50.078;14.470;2024-03-25T12:52:34;97466.78;;;10.06;47.99
86612;BME280;77290;50.078;14.470;2024-03-25T12:55:00;97466.97;;;9.62;48.91
86612;BME280;77290;50.078;14.470;2024-03-25T12:57:25;97469.78;;;9.52;48.57
86612;BME280;77290;50.078;14.470;2024-03-25T12:59:53;97469.94;;;9.46;49.29